Mallard — WDJ6592 — position and weather

sailwx.info

Track history (hours):
 
Tides and Currents Weather Stations Pressure Air Temp Water Temp Dewpoint Dewpoint Depression Visibility Wind Speed Wind Dir Waves Ship Positions

Mallard

Owner: Kirby Inland Marine LP, Houston, TX. More information available from US FCC via Universal Licensing System and Coast Guard Vessel Documentation Center.

Last reported at 2018-Jun-24 01:29 UTC. Time now 2018-Jun-24 01:32 UTC.
Position N 30°06' W 093°18'.

Length 108 m; draft 1.5 m.

Type: . MMSI: 367799320.

Date/timePositionNaut miles runAvg speedWind from/ knotsBaromVisibWave heightAir tempDewpointWater temp
2018-Jun-24 01:29N 30°06' W 093°18'0 0.1
2018-Jun-24 01:00N 30°06' W 093°18'0 0.9
2018-Jun-24 00:30N 30°06' W 093°19'0 0.4
2018-Jun-24 00:00N 30°06' W 093°19'0 0.0
2018-Jun-23 23:31N 30°06' W 093°19'0 0.0
2018-Jun-23 23:00N 30°06' W 093°19'0 0.0
2018-Jun-23 22:30N 30°06' W 093°19'0 0.0
2018-Jun-23 22:00N 30°06' W 093°19'0 0.0
2018-Jun-23 21:30N 30°06' W 093°19'0 0.0
2018-Jun-23 21:01N 30°06' W 093°19'0 0.0
2018-Jun-23 20:30N 30°06' W 093°19'0 0.0
2018-Jun-23 20:00N 30°06' W 093°19'0 0.0
2018-Jun-23 19:30N 30°06' W 093°19'0 0.0
2018-Jun-23 19:00N 30°06' W 093°19'0 0.0
2018-Jun-23 18:31N 30°06' W 093°19'0 0.0
2018-Jun-23 18:00N 30°06' W 093°19'0 0.0
2018-Jun-23 17:30N 30°06' W 093°19'0 0.0
2018-Jun-23 17:00N 30°06' W 093°19'0 0.0
2018-Jun-23 16:27N 30°06' W 093°19'0 0.0
2018-Jun-23 15:59N 30°06' W 093°19'0 0.0
2018-Jun-23 15:29N 30°06' W 093°19'0 0.0
2018-Jun-23 14:59N 30°06' W 093°19'0 0.0
2018-Jun-23 14:30N 30°06' W 093°19'0 0.0
2018-Jun-23 14:00N 30°06' W 093°19'0 0.0
2018-Jun-23 13:30N 30°06' W 093°19'0 0.1
2018-Jun-23 13:00N 30°06' W 093°19'1 3.0
2018-Jun-23 12:30N 30°05' W 093°20'1 2.9
2018-Jun-23 12:00N 30°04' W 093°21'2 3.5
2018-Jun-23 11:30N 30°04' W 093°23'2 3.5
2018-Jun-23 11:00N 30°04' W 093°25'0 0.1
2018-Jun-23 10:29N 30°04' W 093°25'0 0.0
2018-Jun-23 10:00N 30°04' W 093°25'0 0.0
2018-Jun-23 09:30N 30°04' W 093°25'0 0.0
2018-Jun-23 09:00N 30°04' W 093°25'0 0.0
2018-Jun-23 08:30N 30°04' W 093°25'0 0.0
2018-Jun-23 08:00N 30°04' W 093°25'0 0.0
2018-Jun-23 07:30N 30°04' W 093°25'0 0.0
2018-Jun-23 06:59N 30°04' W 093°25'0 0.0
2018-Jun-23 06:31N 30°04' W 093°25'0 0.1
2018-Jun-23 06:01N 30°04' W 093°25'0 0.0
2018-Jun-23 05:30N 30°04' W 093°25'0 0.0
2018-Jun-23 05:00N 30°04' W 093°25'0 0.0
2018-Jun-23 04:30N 30°04' W 093°25'0 0.1
2018-Jun-23 04:00N 30°04' W 093°25'0 0.0
2018-Jun-23 03:30N 30°04' W 093°25'0 0.1
2018-Jun-23 03:00N 30°04' W 093°25'0 0.1
2018-Jun-23 02:30N 30°04' W 093°25'1 2.2
2018-Jun-23 02:00N 30°04' W 093°27'1 1.0
2018-Jun-23 01:30N 30°04' W 093°27'3 5.7
2018-Jun-23 01:00N 30°04' W 093°30'4 5.6
2018-Jun-23 00:13N 30°04' W 093°36'2 5.4
2018-Jun-22 23:54N 30°04' W 093°38'2 5.3
2018-Jun-22 23:26N 30°04' W 093°40'2 5.2
2018-Jun-22 23:00N 30°03' W 093°43'2 5.0
2018-Jun-22 22:31N 30°01' W 093°45'2 4.9
2018-Jun-22 22:00N 29°60' W 093°47'2 4.9
2018-Jun-22 21:30N 29°59' W 093°49'2 4.5
2018-Jun-22 21:00N 29°57' W 093°51'3 5.2
2018-Jun-22 20:30N 29°55' W 093°53'3 5.2
2018-Jun-22 20:00N 29°53' W 093°55'3 5.4
2018-Jun-22 19:30N 29°51' W 093°57'3 5.1
2018-Jun-22 19:00N 29°49' W 093°59'3 5.1
2018-Jun-22 18:31N 29°47' W 094°01'3 5.2
2018-Jun-22 18:00N 29°46' W 094°03'2 4.6
2018-Jun-22 17:31N 29°44' W 094°05'3 5.2
2018-Jun-22 17:01N 29°43' W 094°08'3 5.0
2018-Jun-22 16:30N 29°41' W 094°10'3 5.1
2018-Jun-22 16:00N 29°40' W 094°13'3 5.0
2018-Jun-22 15:29N 29°39' W 094°16'2 4.9
2018-Jun-22 15:00N 29°38' W 094°18'2 4.9
2018-Jun-22 14:30N 29°37' W 094°20'3 4.8
2018-Jun-22 13:56N 29°36' W 094°23'2 3.5
2018-Jun-22 13:29N 29°35' W 094°25'1 1.5
2018-Jun-22 12:53N 29°34' W 094°25'2 4.8
2018-Jun-22 12:29N 29°34' W 094°27'2 4.1
2018-Jun-22 12:00N 29°32' W 094°29'13 3.7
2018-Jun-22 08:30N 29°26' W 094°42'3 4.7
2018-Jun-22 07:57N 29°25' W 094°44'2 4.5
2018-Jun-22 07:30N 29°23' W 094°46'2 4.6
2018-Jun-22 06:59N 29°22' W 094°48'6 4.7
2018-Jun-22 05:48N 29°27' W 094°51'2 5.3
2018-Jun-22 05:24N 29°29' W 094°52'3 5.3
2018-Jun-22 04:50N 29°32' W 094°53'2 5.1
2018-Jun-22 04:30N 29°33' W 094°55'3 5.2
2018-Jun-22 04:00N 29°35' W 094°56'3 5.1
2018-Jun-22 03:30N 29°37' W 094°58'2 5.0
2018-Jun-22 03:01N 29°40' W 094°59'5 5.0
2018-Jun-22 02:02N 29°44' W 095°02'4 3.2
2018-Jun-22 00:49N 29°46' W 095°05'0 0.0
2018-Jun-21 05:44N 29°46' W 095°05'5 0.2
2018-Jun-20 07:57N 29°42' W 095°01'5 3.9
2018-Jun-20 06:38N 29°42' W 094°55'0 0.1
2018-Jun-20 01:36N 29°41' W 094°55'0 4.0
2018-Jun-20 01:30N 29°41' W 094°56'1 2.6
2018-Jun-20 01:00N 29°41' W 094°57'  
2018-Jun-15 08:23N 29°44' W 095°02'2 3.9
2018-Jun-15 07:57N 29°42' W 095°01'2 4.1
2018-Jun-15 07:30N 29°41' W 094°59'6 4.7
2018-Jun-15 06:09N 29°35' W 094°56'1 5.2
2018-Jun-15 05:59N 29°35' W 094°56'14 4.5
2018-Jun-15 02:56N 29°23' W 094°48'1 2.4
2018-Jun-15 02:30N 29°22' W 094°48'3 5.2
2018-Jun-15 02:00N 29°23' W 094°51'2 3.5
2018-Jun-15 01:29N 29°22' W 094°53'1 1.3
2018-Jun-15 00:40N 29°22' W 094°54'0 0.2
2018-Jun-15 00:31N 29°22' W 094°54'3 4.6
2018-Jun-14 23:56N 29°23' W 094°52'2 5.8
2018-Jun-14 23:31N 29°22' W 094°49'6 3.2
2018-Jun-14 21:45N 29°25' W 094°44'1 3.7
2018-Jun-14 21:21N 29°24' W 094°45'1 3.6
2018-Jun-14 21:00N 29°23' W 094°46'2 3.8
2018-Jun-14 20:30N 29°22' W 094°48'2 3.6
2018-Jun-14 20:00N 29°22' W 094°50'2 4.3
2018-Jun-14 19:30N 29°23' W 094°52'1 1.7
2018-Jun-14 18:41N 29°22' W 094°53'0 0.0
2018-Jun-14 09:25N 29°22' W 094°53'0 0.0
2018-Jun-14 08:49N 29°22' W 094°53'0 0.0
2018-Jun-14 08:13N 29°22' W 094°53'0 0.0
2018-Jun-14 07:31N 29°22' W 094°53'0 0.0
2018-Jun-14 07:28N 29°22' W 094°53'0 0.0
2018-Jun-14 04:22N 29°22' W 094°53'  
Track history (hours):
 
Tides and Currents Weather Stations Pressure Air Temp Water Temp Dewpoint Dewpoint Depression Visibility Wind Speed Wind Dir Waves Ship Positions

Mallard

Owner: Kirby Inland Marine LP, Houston, TX. More information available from US FCC via Universal Licensing System and Coast Guard Vessel Documentation Center.

Last reported at 2018-Jun-24 01:29 UTC. Time now 2018-Jun-24 01:32 UTC.
Position N 30°06' W 093°18'.

Length 108 m; draft 1.5 m.

Type: . MMSI: 367799320.

Date/timePositionNaut miles runAvg speedWind from/ knotsBaromVisibWave heightAir tempDewpointWater temp
2018-Jun-24 01:29N 30°06' W 093°18'0 0.1
2018-Jun-24 01:00N 30°06' W 093°18'0 0.9
2018-Jun-24 00:30N 30°06' W 093°19'0 0.4
2018-Jun-24 00:00N 30°06' W 093°19'0 0.0
2018-Jun-23 23:31N 30°06' W 093°19'0 0.0
2018-Jun-23 23:00N 30°06' W 093°19'0 0.0
2018-Jun-23 22:30N 30°06' W 093°19'0 0.0
2018-Jun-23 22:00N 30°06' W 093°19'0 0.0
2018-Jun-23 21:30N 30°06' W 093°19'0 0.0
2018-Jun-23 21:01N 30°06' W 093°19'0 0.0
2018-Jun-23 20:30N 30°06' W 093°19'0 0.0
2018-Jun-23 20:00N 30°06' W 093°19'0 0.0
2018-Jun-23 19:30N 30°06' W 093°19'0 0.0
2018-Jun-23 19:00N 30°06' W 093°19'0 0.0
2018-Jun-23 18:31N 30°06' W 093°19'0 0.0
2018-Jun-23 18:00N 30°06' W 093°19'0 0.0
2018-Jun-23 17:30N 30°06' W 093°19'0 0.0
2018-Jun-23 17:00N 30°06' W 093°19'0 0.0
2018-Jun-23 16:27N 30°06' W 093°19'0 0.0
2018-Jun-23 15:59N 30°06' W 093°19'0 0.0
2018-Jun-23 15:29N 30°06' W 093°19'0 0.0
2018-Jun-23 14:59N 30°06' W 093°19'0 0.0
2018-Jun-23 14:30N 30°06' W 093°19'0 0.0
2018-Jun-23 14:00N 30°06' W 093°19'0 0.0
2018-Jun-23 13:30N 30°06' W 093°19'0 0.1
2018-Jun-23 13:00N 30°06' W 093°19'1 3.0
2018-Jun-23 12:30N 30°05' W 093°20'1 2.9
2018-Jun-23 12:00N 30°04' W 093°21'2 3.5
2018-Jun-23 11:30N 30°04' W 093°23'2 3.5
2018-Jun-23 11:00N 30°04' W 093°25'0 0.1
2018-Jun-23 10:29N 30°04' W 093°25'0 0.0
2018-Jun-23 10:00N 30°04' W 093°25'0 0.0
2018-Jun-23 09:30N 30°04' W 093°25'0 0.0
2018-Jun-23 09:00N 30°04' W 093°25'0 0.0
2018-Jun-23 08:30N 30°04' W 093°25'0 0.0
2018-Jun-23 08:00N 30°04' W 093°25'0 0.0
2018-Jun-23 07:30N 30°04' W 093°25'0 0.0
2018-Jun-23 06:59N 30°04' W 093°25'0 0.0
2018-Jun-23 06:31N 30°04' W 093°25'0 0.1
2018-Jun-23 06:01N 30°04' W 093°25'0 0.0
2018-Jun-23 05:30N 30°04' W 093°25'0 0.0
2018-Jun-23 05:00N 30°04' W 093°25'0 0.0
2018-Jun-23 04:30N 30°04' W 093°25'0 0.1
2018-Jun-23 04:00N 30°04' W 093°25'0 0.0
2018-Jun-23 03:30N 30°04' W 093°25'0 0.1
2018-Jun-23 03:00N 30°04' W 093°25'0 0.1
2018-Jun-23 02:30N 30°04' W 093°25'1 2.2
2018-Jun-23 02:00N 30°04' W 093°27'1 1.0
2018-Jun-23 01:30N 30°04' W 093°27'3 5.7
2018-Jun-23 01:00N 30°04' W 093°30'4 5.6
2018-Jun-23 00:13N 30°04' W 093°36'2 5.4
2018-Jun-22 23:54N 30°04' W 093°38'2 5.3
2018-Jun-22 23:26N 30°04' W 093°40'2 5.2
2018-Jun-22 23:00N 30°03' W 093°43'2 5.0
2018-Jun-22 22:31N 30°01' W 093°45'2 4.9
2018-Jun-22 22:00N 29°60' W 093°47'2 4.9
2018-Jun-22 21:30N 29°59' W 093°49'2 4.5
2018-Jun-22 21:00N 29°57' W 093°51'3 5.2
2018-Jun-22 20:30N 29°55' W 093°53'3 5.2
2018-Jun-22 20:00N 29°53' W 093°55'3 5.4
2018-Jun-22 19:30N 29°51' W 093°57'3 5.1
2018-Jun-22 19:00N 29°49' W 093°59'3 5.1
2018-Jun-22 18:31N 29°47' W 094°01'3 5.2
2018-Jun-22 18:00N 29°46' W 094°03'2 4.6
2018-Jun-22 17:31N 29°44' W 094°05'3 5.2
2018-Jun-22 17:01N 29°43' W 094°08'3 5.0
2018-Jun-22 16:30N 29°41' W 094°10'3 5.1
2018-Jun-22 16:00N 29°40' W 094°13'3 5.0
2018-Jun-22 15:29N 29°39' W 094°16'2 4.9
2018-Jun-22 15:00N 29°38' W 094°18'2 4.9
2018-Jun-22 14:30N 29°37' W 094°20'3 4.8
2018-Jun-22 13:56N 29°36' W 094°23'2 3.5
2018-Jun-22 13:29N 29°35' W 094°25'1 1.5
2018-Jun-22 12:53N 29°34' W 094°25'2 4.8
2018-Jun-22 12:29N 29°34' W 094°27'2 4.1
2018-Jun-22 12:00N 29°32' W 094°29'13 3.7
2018-Jun-22 08:30N 29°26' W 094°42'3 4.7
2018-Jun-22 07:57N 29°25' W 094°44'2 4.5
2018-Jun-22 07:30N 29°23' W 094°46'2 4.6
2018-Jun-22 06:59N 29°22' W 094°48'6 4.7
2018-Jun-22 05:48N 29°27' W 094°51'2 5.3
2018-Jun-22 05:24N 29°29' W 094°52'3 5.3
2018-Jun-22 04:50N 29°32' W 094°53'2 5.1
2018-Jun-22 04:30N 29°33' W 094°55'3 5.2
2018-Jun-22 04:00N 29°35' W 094°56'3 5.1
2018-Jun-22 03:30N 29°37' W 094°58'2 5.0
2018-Jun-22 03:01N 29°40' W 094°59'5 5.0
2018-Jun-22 02:02N 29°44' W 095°02'4 3.2
2018-Jun-22 00:49N 29°46' W 095°05'0 0.0
2018-Jun-21 05:44N 29°46' W 095°05'5 0.2
2018-Jun-20 07:57N 29°42' W 095°01'5 3.9
2018-Jun-20 06:38N 29°42' W 094°55'0 0.1
2018-Jun-20 01:36N 29°41' W 094°55'0 4.0
2018-Jun-20 01:30N 29°41' W 094°56'1 2.6
2018-Jun-20 01:00N 29°41' W 094°57'  
2018-Jun-15 08:23N 29°44' W 095°02'2 3.9
2018-Jun-15 07:57N 29°42' W 095°01'2 4.1
2018-Jun-15 07:30N 29°41' W 094°59'6 4.7
2018-Jun-15 06:09N 29°35' W 094°56'1 5.2
2018-Jun-15 05:59N 29°35' W 094°56'14 4.5
2018-Jun-15 02:56N 29°23' W 094°48'1 2.4
2018-Jun-15 02:30N 29°22' W 094°48'3 5.2
2018-Jun-15 02:00N 29°23' W 094°51'2 3.5
2018-Jun-15 01:29N 29°22' W 094°53'1 1.3
2018-Jun-15 00:40N 29°22' W 094°54'0 0.2
2018-Jun-15 00:31N 29°22' W 094°54'3 4.6
2018-Jun-14 23:56N 29°23' W 094°52'2 5.8
2018-Jun-14 23:31N 29°22' W 094°49'6 3.2
2018-Jun-14 21:45N 29°25' W 094°44'1 3.7
2018-Jun-14 21:21N 29°24' W 094°45'1 3.6
2018-Jun-14 21:00N 29°23' W 094°46'2 3.8
2018-Jun-14 20:30N 29°22' W 094°48'2 3.6
2018-Jun-14 20:00N 29°22' W 094°50'2 4.3
2018-Jun-14 19:30N 29°23' W 094°52'1 1.7
2018-Jun-14 18:41N 29°22' W 094°53'0 0.0
2018-Jun-14 09:25N 29°22' W 094°53'0 0.0
2018-Jun-14 08:49N 29°22' W 094°53'0 0.0
2018-Jun-14 08:13N 29°22' W 094°53'0 0.0
2018-Jun-14 07:31N 29°22' W 094°53'0 0.0
2018-Jun-14 07:28N 29°22' W 094°53'0 0.0
2018-Jun-14 04:22N 29°22' W 094°53'  

Dump ship's entire track history